sensor_id;sensor_type;location;lat;lon;timestamp;pressure;altitude;pressure_sealevel;temperature;humidity
37792;BME280;29527;55.766;37.570;2023-03-18T00:02:19;101500.88;;;-0.63;38.71
37792;BME280;29527;55.766;37.570;2023-03-18T00:04:46;101495.63;;;-0.64;38.63
37792;BME280;29527;55.766;37.570;2023-03-18T00:07:11;101498.13;;;-0.49;38.90
37792;BME280;29527;55.766;37.570;2023-03-18T00:09:37;101500.84;;;-0.58;38.52
37792;BME280;29527;55.766;37.570;2023-03-18T00:12:03;101494.78;;;-0.73;39.13
37792;BME280;29527;55.766;37.570;2023-03-18T00:14:29;101493.03;;;-0.72;39.27
37792;BME280;29527;55.766;37.570;2023-03-18T00:16:55;101499.97;;;-0.55;38.79
37792;BME280;29527;55.766;37.570;2023-03-18T00:19:21;101505.31;;;-0.69;39.61
37792;BME280;29527;55.766;37.570;2023-03-18T00:21:49;101505.25;;;-0.65;39.31
37792;BME280;29527;55.766;37.570;2023-03-18T00:24:14;101500.88;;;-0.61;38.82
37792;BME280;29527;55.766;37.570;2023-03-18T00:26:41;101501.00;;;-0.83;39.73
37792;BME280;29527;55.766;37.570;2023-03-18T00:29:08;101510.38;;;-0.43;38.38
37792;BME280;29527;55.766;37.570;2023-03-18T00:31:34;101508.56;;;-0.36;38.73
37792;BME280;29527;55.766;37.570;2023-03-18T00:34:00;101497.38;;;-0.63;38.81
37792;BME280;29527;55.766;37.570;2023-03-18T00:36:26;101516.69;;;-0.64;39.17
37792;BME280;29527;55.766;37.570;2023-03-18T00:38:53;101518.31;;;-0.48;38.63
37792;BME280;29527;55.766;37.570;2023-03-18T00:41:29;101514.91;;;-0.64;39.27
37792;BME280;29527;55.766;37.570;2023-03-18T00:43:57;101511.16;;;-0.30;38.63
37792;BME280;29527;55.766;37.570;2023-03-18T00:46:34;101519.22;;;-0.55;39.40
37792;BME280;29527;55.766;37.570;2023-03-18T00:49:02;101450.38;;;-1.18;39.90
37792;BME280;29527;55.766;37.570;2023-03-18T00:51:31;101518.47;;;-0.73;39.55
37792;BME280;29527;55.766;37.570;2023-03-18T00:53:59;101515.91;;;-0.82;40.08
37792;BME280;29527;55.766;37.570;2023-03-18T00:56:27;101510.72;;;-0.97;40.56
37792;BME280;29527;55.766;37.570;2023-03-18T00:58:54;101514.16;;;-0.81;39.90
37792;BME280;29527;55.766;37.570;2023-03-18T01:01:20;101517.59;;;-0.70;39.46
37792;BME280;29527;55.766;37.570;2023-03-18T01:03:47;101517.59;;;-0.68;39.94
37792;BME280;29527;55.766;37.570;2023-03-18T01:06:19;101521.19;;;-0.83;40.39
37792;BME280;29527;55.766;37.570;2023-03-18T01:08:47;101484.50;;;-1.07;40.07
37792;BME280;29527;55.766;37.570;2023-03-18T01:11:13;101511.63;;;-1.02;40.90
37792;BME280;29527;55.766;37.570;2023-03-18T01:13:39;101512.44;;;-0.92;40.26
37792;BME280;29527;55.766;37.570;2023-03-18T01:16:05;101530.03;;;-1.00;40.83
37792;BME280;29527;55.766;37.570;2023-03-18T01:18:32;101526.31;;;-0.63;39.94
37792;BME280;29527;55.766;37.570;2023-03-18T01:20:59;101534.34;;;-0.85;40.48
37792;BME280;29527;55.766;37.570;2023-03-18T01:23:25;101537.00;;;-0.97;41.02
37792;BME280;29527;55.766;37.570;2023-03-18T01:25:51;101531.78;;;-0.99;41.23
37792;BME280;29527;55.766;37.570;2023-03-18T01:28:16;101544.94;;;-1.04;41.50
37792;BME280;29527;55.766;37.570;2023-03-18T01:30:42;101519.59;;;-1.17;41.03
37792;BME280;29527;55.766;37.570;2023-03-18T01:33:08;101546.75;;;-1.15;41.72
37792;BME280;29527;55.766;37.570;2023-03-18T01:35:34;101552.91;;;-1.24;41.94
37792;BME280;29527;55.766;37.570;2023-03-18T01:38:01;101551.06;;;-1.05;41.42
37792;BME280;29527;55.766;37.570;2023-03-18T01:40:33;101550.25;;;-1.16;41.98
37792;BME280;29527;55.766;37.570;2023-03-18T01:45:37;101565.28;;;-1.54;42.64
37792;BME280;29527;55.766;37.570;2023-03-18T01:48:03;101554.75;;;-1.52;43.07
37792;BME280;29527;55.766;37.570;2023-03-18T01:50:33;101566.06;;;-1.32;42.32
37792;BME280;29527;55.766;37.570;2023-03-18T01:53:09;101572.22;;;-1.33;42.51
37792;BME280;29527;55.766;37.570;2023-03-18T01:55:36;101566.97;;;-1.39;42.68
37792;BME280;29527;55.766;37.570;2023-03-18T01:58:06;101573.06;;;-1.18;41.89
37792;BME280;29527;55.766;37.570;2023-03-18T02:00:35;101582.72;;;-1.25;41.87
37792;BME280;29527;55.766;37.570;2023-03-18T02:03:03;101576.53;;;-1.22;41.82
37792;BME280;29527;55.766;37.570;2023-03-18T02:05:29;101573.09;;;-1.31;42.25
37792;BME280;29527;55.766;37.570;2023-03-18T02:07:55;101570.41;;;-1.21;42.14
37792;BME280;29527;55.766;37.570;2023-03-18T02:10:26;101587.13;;;-1.38;42.57
37792;BME280;29527;55.766;37.570;2023-03-18T02:12:55;101588.03;;;-1.53;42.62
37792;BME280;29527;55.766;37.570;2023-03-18T02:15:23;101590.66;;;-1.62;42.83
37792;BME280;29527;55.766;37.570;2023-03-18T02:18:06;101592.44;;;-1.55;43.59
37792;BME280;29527;55.766;37.570;2023-03-18T02:26:24;101604.66;;;-1.51;42.62
37792;BME280;29527;55.766;37.570;2023-03-18T02:28:42;101608.19;;;-1.60;43.42
37792;BME280;29527;55.766;37.570;2023-03-18T02:31:11;101604.69;;;-1.59;43.02
37792;BME280;29527;55.766;37.570;2023-03-18T02:33:38;101603.78;;;-1.54;43.61
37792;BME280;29527;55.766;37.570;2023-03-18T02:36:23;101599.38;;;-1.41;42.87
37792;BME280;29527;55.766;37.570;2023-03-18T02:38:50;101605.53;;;-1.41;42.88
37792;BME280;29527;55.766;37.570;2023-03-18T02:41:19;101608.19;;;-1.56;43.21
37792;BME280;29527;55.766;37.570;2023-03-18T02:43:46;101604.66;;;-1.55;43.48
37792;BME280;29527;55.766;37.570;2023-03-18T02:48:58;101618.69;;;-1.56;42.91
37792;BME280;29527;55.766;37.570;2023-03-18T02:51:25;101617.78;;;-1.52;43.23
37792;BME280;29527;55.766;37.570;2023-03-18T02:53:53;101631.78;;;-1.47;43.28
37792;BME280;29527;55.766;37.570;2023-03-18T02:56:20;101624.81;;;-1.59;43.26
37792;BME280;29527;55.766;37.570;2023-03-18T02:58:45;101637.06;;;-1.69;43.63
37792;BME280;29527;55.766;37.570;2023-03-18T03:01:12;101628.31;;;-1.69;43.62
37792;BME280;29527;55.766;37.570;2023-03-18T03:03:39;101629.19;;;-1.61;43.36
37792;BME280;29527;55.766;37.570;2023-03-18T03:06:05;101634.44;;;-1.61;43.28
37792;BME280;29527;55.766;37.570;2023-03-18T03:08:31;101644.06;;;-1.60;42.83
37792;BME280;29527;55.766;37.570;2023-03-18T03:10:57;101644.94;;;-1.64;43.07
37792;BME280;29527;55.766;37.570;2023-03-18T03:13:23;101634.44;;;-1.75;44.14
37792;BME280;29527;55.766;37.570;2023-03-18T03:15:49;101639.72;;;-1.70;43.34
37792;BME280;29527;55.766;37.570;2023-03-18T03:18:15;101650.19;;;-1.72;43.83
37792;BME280;29527;55.766;37.570;2023-03-18T03:20:41;101647.59;;;-1.81;44.11
37792;BME280;29527;55.766;37.570;2023-03-18T03:23:11;101651.09;;;-1.61;43.53
37792;BME280;29527;55.766;37.570;2023-03-18T03:25:38;101650.22;;;-1.66;43.50
37792;BME280;29527;55.766;37.570;2023-03-18T03:28:05;101651.97;;;-1.66;43.90
37792;BME280;29527;55.766;37.570;2023-03-18T03:30:31;101643.19;;;-1.70;42.99
37792;BME280;29527;55.766;37.570;2023-03-18T03:32:57;101641.44;;;-1.74;43.35
37792;BME280;29527;55.766;37.570;2023-03-18T03:35:23;101642.31;;;-1.64;43.44
37792;BME280;29527;55.766;37.570;2023-03-18T03:37:49;101650.19;;;-1.69;43.70
37792;BME280;29527;55.766;37.570;2023-03-18T03:40:17;101644.97;;;-1.77;44.07
37792;BME280;29527;55.766;37.570;2023-03-18T03:42:43;101644.94;;;-1.56;43.17
37792;BME280;29527;55.766;37.570;2023-03-18T03:45:11;101651.06;;;-1.54;43.29
37792;BME280;29527;55.766;37.570;2023-03-18T03:47:39;101646.72;;;-1.62;42.98
37792;BME280;29527;55.766;37.570;2023-03-18T03:50:05;101648.47;;;-1.67;43.33
37792;BME280;29527;55.766;37.570;2023-03-18T03:52:31;101651.94;;;-1.71;43.46
37792;BME280;29527;55.766;37.570;2023-03-18T03:54:58;101649.34;;;-1.73;44.55
37792;BME280;29527;55.766;37.570;2023-03-18T03:57:25;101652.84;;;-1.56;43.33
37792;BME280;29527;55.766;37.570;2023-03-18T03:59:52;101659.84;;;-1.65;43.84
37792;BME280;29527;55.766;37.570;2023-03-18T04:02:18;101637.97;;;-1.64;43.68
37792;BME280;29527;55.766;37.570;2023-03-18T04:04:44;101665.94;;;-1.33;42.72
37792;BME280;29527;55.766;37.570;2023-03-18T04:07:11;101660.72;;;-1.41;43.15
37792;BME280;29527;55.766;37.570;2023-03-18T04:09:37;101653.69;;;-1.45;43.48
37792;BME280;29527;55.766;37.570;2023-03-18T04:12:03;101667.69;;;-1.37;43.50
37792;BME280;29527;55.766;37.570;2023-03-18T04:14:30;101666.81;;;-1.34;44.05
37792;BME280;29527;55.766;37.570;2023-03-18T04:16:55;101669.44;;;-1.30;43.28
37792;BME280;29527;55.766;37.570;2023-03-18T04:19:23;101668.53;;;-1.08;43.96
37792;BME280;29527;55.766;37.570;2023-03-18T04:21:50;101662.72;;;0.04;41.88
37792;BME280;29527;55.766;37.570;2023-03-18T04:24:15;101665.50;;;2.21;38.16
37792;BME280;29527;55.766;37.570;2023-03-18T04:26:42;101658.84;;;4.22;34.83
37792;BME280;29527;55.766;37.570;2023-03-18T04:29:07;101658.16;;;5.76;31.89
37792;BME280;29527;55.766;37.570;2023-03-18T04:31:33;101654.09;;;7.00;29.68
37792;BME280;29527;55.766;37.570;2023-03-18T04:33:58;101648.59;;;7.99;28.22
37792;BME280;29527;55.766;37.570;2023-03-18T04:36:24;101654.56;;;9.11;26.84
37792;BME280;29527;55.766;37.570;2023-03-18T04:38:49;101665.16;;;10.27;25.01
37792;BME280;29527;55.766;37.570;2023-03-18T04:41:16;101669.75;;;10.96;24.44
37792;BME280;29527;55.766;37.570;2023-03-18T04:43:41;101661.59;;;11.48;23.35
37792;BME280;29527;55.766;37.570;2023-03-18T04:46:09;101661.97;;;11.74;22.96
37792;BME280;29527;55.766;37.570;2023-03-18T04:48:36;101672.63;;;12.55;22.06
37792;BME280;29527;55.766;37.570;2023-03-18T04:51:02;101671.88;;;13.56;20.80
37792;BME280;29527;55.766;37.570;2023-03-18T04:53:28;101670.00;;;13.85;20.32
37792;BME280;29527;55.766;37.570;2023-03-18T04:55:53;101667.63;;;14.35;19.52
37792;BME280;29527;55.766;37.570;2023-03-18T04:58:19;101666.66;;;15.16;18.97
37792;BME280;29527;55.766;37.570;2023-03-18T05:00:45;101666.78;;;15.77;18.36
37792;BME280;29527;55.766;37.570;2023-03-18T05:03:11;101670.72;;;16.82;17.44
37792;BME280;29527;55.766;37.570;2023-03-18T05:05:36;101668.16;;;17.83;16.37
37792;BME280;29527;55.766;37.570;2023-03-18T05:08:02;101680.38;;;18.87;15.38
37792;BME280;29527;55.766;37.570;2023-03-18T05:10:27;101675.22;;;19.67;14.68
37792;BME280;29527;55.766;37.570;2023-03-18T05:12:53;101648.28;;;20.05;14.64
37792;BME280;29527;55.766;37.570;2023-03-18T05:15:19;101670.75;;;20.46;13.78
37792;BME280;29527;55.766;37.570;2023-03-18T05:17:44;101670.13;;;20.92;13.54
37792;BME280;29527;55.766;37.570;2023-03-18T05:20:11;101678.84;;;21.05;13.26
37792;BME280;29527;55.766;37.570;2023-03-18T05:22:37;101678.13;;;21.13;13.30
37792;BME280;29527;55.766;37.570;2023-03-18T05:25:05;101681.19;;;21.76;12.65
37792;BME280;29527;55.766;37.570;2023-03-18T05:27:30;101672.63;;;21.89;12.54
37792;BME280;29527;55.766;37.570;2023-03-18T05:29:56;101676.09;;;22.63;11.95
37792;BME280;29527;55.766;37.570;2023-03-18T05:32:21;101679.78;;;23.25;11.46
37792;BME280;29527;55.766;37.570;2023-03-18T05:34:47;101684.75;;;23.64;10.93
37792;BME280;29527;55.766;37.570;2023-03-18T05:37:13;101687.22;;;23.49;11.15
37792;BME280;29527;55.766;37.570;2023-03-18T05:39:40;101687.16;;;23.68;10.85
37792;BME280;29527;55.766;37.570;2023-03-18T05:42:08;101678.16;;;23.41;10.88
37792;BME280;29527;55.766;37.570;2023-03-18T05:44:34;101671.81;;;23.83;10.59
37792;BME280;29527;55.766;37.570;2023-03-18T05:47:00;101675.69;;;24.82;10.27
37792;BME280;29527;55.766;37.570;2023-03-18T05:49:26;101672.63;;;24.60;9.72
37792;BME280;29527;55.766;37.570;2023-03-18T05:51:51;101687.63;;;25.22;9.72
37792;BME280;29527;55.766;37.570;2023-03-18T05:54:17;101672.63;;;25.89;9.41
37792;BME280;29527;55.766;37.570;2023-03-18T05:56:43;101680.34;;;26.64;8.63
37792;BME280;29527;55.766;37.570;2023-03-18T05:59:10;101683.94;;;26.88;8.57
37792;BME280;29527;55.766;37.570;2023-03-18T06:01:37;101685.69;;;26.80;8.50
37792;BME280;29527;55.766;37.570;2023-03-18T06:04:03;101702.09;;;27.57;8.26
37792;BME280;29527;55.766;37.570;2023-03-18T06:06:31;101693.63;;;27.74;7.88
37792;BME280;29527;55.766;37.570;2023-03-18T06:08:57;101687.41;;;28.45;7.70
37792;BME280;29527;55.766;37.570;2023-03-18T06:11:23;101693.28;;;28.86;7.05
37792;BME280;29527;55.766;37.570;2023-03-18T06:13:49;101693.00;;;29.02;7.65
37792;BME280;29527;55.766;37.570;2023-03-18T06:16:15;101693.28;;;29.43;7.11
37792;BME280;29527;55.766;37.570;2023-03-18T06:18:40;101692.88;;;30.01;6.69
37792;BME280;29527;55.766;37.570;2023-03-18T06:21:08;101700.44;;;30.68;6.76
37792;BME280;29527;55.766;37.570;2023-03-18T06:23:34;101702.94;;;31.30;6.09
37792;BME280;29527;55.766;37.570;2023-03-18T06:26:00;101694.31;;;31.59;6.05
37792;BME280;29527;55.766;37.570;2023-03-18T06:28:26;101706.50;;;32.03;5.80
37792;BME280;29527;55.766;37.570;2023-03-18T06:30:56;101709.44;;;32.08;5.79
37792;BME280;29527;55.766;37.570;2023-03-18T06:33:23;101709.03;;;31.59;5.51
37792;BME280;29527;55.766;37.570;2023-03-18T06:35:49;101675.72;;;30.93;5.86
37792;BME280;29527;55.766;37.570;2023-03-18T06:38:15;101706.41;;;30.65;6.37
37792;BME280;29527;55.766;37.570;2023-03-18T06:40:42;101701.25;;;31.02;6.11
37792;BME280;29527;55.766;37.570;2023-03-18T06:43:08;101679.41;;;31.60;5.85
37792;BME280;29527;55.766;37.570;2023-03-18T06:45:35;101696.09;;;31.92;5.38
37792;BME280;29527;55.766;37.570;2023-03-18T06:48:00;101701.34;;;32.07;5.30
37792;BME280;29527;55.766;37.570;2023-03-18T06:50:26;101704.03;;;32.53;5.40
37792;BME280;29527;55.766;37.570;2023-03-18T06:52:52;101712.94;;;32.87;5.18
37792;BME280;29527;55.766;37.570;2023-03-18T06:55:17;101713.38;;;33.09;4.83
37792;BME280;29527;55.766;37.570;2023-03-18T06:57:43;101709.31;;;33.30;4.67
37792;BME280;29527;55.766;37.570;2023-03-18T07:00:10;101687.66;;;33.58;4.60
37792;BME280;29527;55.766;37.570;2023-03-18T07:02:36;101706.22;;;34.37;4.32
37792;BME280;29527;55.766;37.570;2023-03-18T07:05:01;101685.13;;;34.84;3.93
37792;BME280;29527;55.766;37.570;2023-03-18T07:07:29;101709.28;;;35.43;3.92
37792;BME280;29527;55.766;37.570;2023-03-18T07:09:54;101708.56;;;35.88;3.53
37792;BME280;29527;55.766;37.570;2023-03-18T07:12:20;101710.09;;;36.08;3.41
37792;BME280;29527;55.766;37.570;2023-03-18T07:14:46;101705.16;;;36.44;3.38
37792;BME280;29527;55.766;37.570;2023-03-18T07:17:12;101698.56;;;36.33;3.58
37792;BME280;29527;55.766;37.570;2023-03-18T07:19:39;101689.56;;;35.85;3.23
37792;BME280;29527;55.766;37.570;2023-03-18T07:22:04;101697.56;;;35.29;3.02
37792;BME280;29527;55.766;37.570;2023-03-18T07:24:30;101704.66;;;34.41;3.55
37792;BME280;29527;55.766;37.570;2023-03-18T07:26:55;101706.34;;;34.00;2.96
37792;BME280;29527;55.766;37.570;2023-03-18T07:29:21;101682.94;;;33.21;3.40
37792;BME280;29527;55.766;37.570;2023-03-18T07:31:46;101691.72;;;33.18;3.37
37792;BME280;29527;55.766;37.570;2023-03-18T07:34:12;101693.19;;;33.58;3.28
37792;BME280;29527;55.766;37.570;2023-03-18T07:36:39;101686.75;;;33.45;3.08
37792;BME280;29527;55.766;37.570;2023-03-18T07:39:07;101660.19;;;32.68;3.30
37792;BME280;29527;55.766;37.570;2023-03-18T07:41:34;101707.16;;;31.99;3.40
37792;BME280;29527;55.766;37.570;2023-03-18T07:44:00;101692.72;;;31.24;3.83
37792;BME280;29527;55.766;37.570;2023-03-18T07:46:25;101691.25;;;31.87;4.13
37792;BME280;29527;55.766;37.570;2023-03-18T07:48:52;101707.09;;;32.44;4.14
37792;BME280;29527;55.766;37.570;2023-03-18T07:51:17;101709.97;;;31.13;3.36
37792;BME280;29527;55.766;37.570;2023-03-18T07:53:43;101694.72;;;29.87;3.89
37792;BME280;29527;55.766;37.570;2023-03-18T07:56:09;101683.91;;;29.08;3.75
37792;BME280;29527;55.766;37.570;2023-03-18T07:58:36;101702.13;;;28.31;4.34
37792;BME280;29527;55.766;37.570;2023-03-18T08:01:02;101701.16;;;26.58;4.89
37792;BME280;29527;55.766;37.570;2023-03-18T08:03:28;101686.47;;;24.42;5.39
37792;BME280;29527;55.766;37.570;2023-03-18T08:05:53;101646.22;;;21.89;5.94
37792;BME280;29527;55.766;37.570;2023-03-18T08:08:20;101715.09;;;19.35;7.22
37792;BME280;29527;55.766;37.570;2023-03-18T08:10:46;101706.16;;;16.55;9.06
37792;BME280;29527;55.766;37.570;2023-03-18T08:13:12;101698.44;;;13.89;11.66
37792;BME280;29527;55.766;37.570;2023-03-18T08:15:39;101708.66;;;12.51;11.94
37792;BME280;29527;55.766;37.570;2023-03-18T08:18:04;101708.44;;;11.08;12.91
37792;BME280;29527;55.766;37.570;2023-03-18T08:20:30;101710.16;;;10.38;14.26
37792;BME280;29527;55.766;37.570;2023-03-18T08:22:55;101700.16;;;9.67;14.55
37792;BME280;29527;55.766;37.570;2023-03-18T08:25:21;101717.72;;;9.32;14.92
37792;BME280;29527;55.766;37.570;2023-03-18T08:27:48;101702.28;;;8.99;15.07
37792;BME280;29527;55.766;37.570;2023-03-18T08:30:14;101707.09;;;8.70;16.10
37792;BME280;29527;55.766;37.570;2023-03-18T08:32:41;101707.91;;;8.50;15.79
37792;BME280;29527;55.766;37.570;2023-03-18T08:35:08;101716.31;;;8.39;16.13
37792;BME280;29527;55.766;37.570;2023-03-18T08:37:34;101702.78;;;7.77;17.25
37792;BME280;29527;55.766;37.570;2023-03-18T08:40:01;101718.00;;;7.50;17.07
37792;BME280;29527;55.766;37.570;2023-03-18T08:42:27;101709.41;;;7.17;17.91
37792;BME280;29527;55.766;37.570;2023-03-18T08:44:52;101700.38;;;6.96;17.83
37792;BME280;29527;55.766;37.570;2023-03-18T08:47:19;101720.22;;;6.87;18.19
37792;BME280;29527;55.766;37.570;2023-03-18T08:49:45;101715.06;;;6.83;18.60
37792;BME280;29527;55.766;37.570;2023-03-18T08:52:11;101712.31;;;6.84;18.34
37792;BME280;29527;55.766;37.570;2023-03-18T08:54:36;101705.69;;;6.96;18.12
37792;BME280;29527;55.766;37.570;2023-03-18T08:57:02;101710.53;;;6.85;18.37
37792;BME280;29527;55.766;37.570;2023-03-18T08:59:27;101669.63;;;6.62;18.21
37792;BME280;29527;55.766;37.570;2023-03-18T09:01:53;101708.28;;;6.72;18.14
37792;BME280;29527;55.766;37.570;2023-03-18T09:04:18;101686.66;;;6.56;17.99
37792;BME280;29527;55.766;37.570;2023-03-18T09:06:44;101704.25;;;6.60;18.41
37792;BME280;29527;55.766;37.570;2023-03-18T09:09:10;101702.97;;;6.72;16.75
37792;BME280;29527;55.766;37.570;2023-03-18T09:11:36;101678.31;;;6.40;16.87
37792;BME280;29527;55.766;37.570;2023-03-18T09:14:01;101695.09;;;6.42;17.17
37792;BME280;29527;55.766;37.570;2023-03-18T09:16:27;101699.28;;;6.23;18.55
37792;BME280;29527;55.766;37.570;2023-03-18T09:18:53;101694.56;;;6.04;18.80
37792;BME280;29527;55.766;37.570;2023-03-18T09:21:18;101686.91;;;6.22;17.91
37792;BME280;29527;55.766;37.570;2023-03-18T09:23:44;101688.53;;;6.26;18.58
37792;BME280;29527;55.766;37.570;2023-03-18T09:26:10;101677.72;;;6.32;18.72
37792;BME280;29527;55.766;37.570;2023-03-18T09:28:36;101702.97;;;6.45;18.62
37792;BME280;29527;55.766;37.570;2023-03-18T09:31:01;101686.97;;;6.47;16.86
37792;BME280;29527;55.766;37.570;2023-03-18T09:33:27;101690.56;;;6.46;17.10
37792;BME280;29527;55.766;37.570;2023-03-18T09:35:53;101690.09;;;6.33;17.61
37792;BME280;29527;55.766;37.570;2023-03-18T09:38:19;101702.28;;;6.40;17.22
37792;BME280;29527;55.766;37.570;2023-03-18T09:41:06;101678.56;;;6.59;17.02
37792;BME280;29527;55.766;37.570;2023-03-18T09:49:17;101671.34;;;6.09;16.94
37792;BME280;29527;55.766;37.570;2023-03-18T09:52:36;101672.56;;;6.26;17.67
37792;BME280;29527;55.766;37.570;2023-03-18T09:57:44;101674.13;;;6.33;17.33
37792;BME280;29527;55.766;37.570;2023-03-18T10:00:18;101664.41;;;6.32;17.15
37792;BME280;29527;55.766;37.570;2023-03-18T10:03:16;101661.50;;;6.40;16.89
37792;BME280;29527;55.766;37.570;2023-03-18T10:10:52;101639.28;;;6.14;17.91
37792;BME280;29527;55.766;37.570;2023-03-18T10:13:56;101651.69;;;6.42;17.69
37792;BME280;29527;55.766;37.570;2023-03-18T10:16:29;101659.66;;;6.42;17.12
37792;BME280;29527;55.766;37.570;2023-03-18T10:18:55;101640.88;;;6.20;17.81
37792;BME280;29527;55.766;37.570;2023-03-18T10:22:01;101642.31;;;6.30;17.77
37792;BME280;29527;55.766;37.570;2023-03-18T10:24:41;101643.31;;;6.26;17.69
37792;BME280;29527;55.766;37.570;2023-03-18T10:27:40;101642.25;;;6.31;17.52
37792;BME280;29527;55.766;37.570;2023-03-18T10:33:01;101610.69;;;6.21;16.72
37792;BME280;29527;55.766;37.570;2023-03-18T10:35:47;101636.91;;;6.33;16.92
37792;BME280;29527;55.766;37.570;2023-03-18T10:38:29;101627.31;;;6.27;17.29
37792;BME280;29527;55.766;37.570;2023-03-18T10:40:57;101621.34;;;6.21;17.36
37792;BME280;29527;55.766;37.570;2023-03-18T10:43:28;101628.03;;;6.32;18.00
37792;BME280;29527;55.766;37.570;2023-03-18T10:46:05;101620.50;;;6.45;17.99
37792;BME280;29527;55.766;37.570;2023-03-18T10:48:44;101629.19;;;6.51;17.23
37792;BME280;29527;55.766;37.570;2023-03-18T10:54:11;101617.72;;;6.49;16.55
37792;BME280;29527;55.766;37.570;2023-03-18T10:56:39;101615.72;;;6.30;16.32
37792;BME280;29527;55.766;37.570;2023-03-18T10:59:14;101594.16;;;6.11;17.02
37792;BME280;29527;55.766;37.570;2023-03-18T11:01:45;101617.97;;;6.15;17.20
37792;BME280;29527;55.766;37.570;2023-03-18T11:04:14;101626.44;;;6.27;16.73
37792;BME280;29527;55.766;37.570;2023-03-18T11:06:48;101612.53;;;6.18;16.50
37792;BME280;29527;55.766;37.570;2023-03-18T11:09:19;101623.16;;;6.18;16.79
37792;BME280;29527;55.766;37.570;2023-03-18T11:11:48;101613.72;;;6.10;17.01
37792;BME280;29527;55.766;37.570;2023-03-18T11:14:17;101576.69;;;5.75;16.79
37792;BME280;29527;55.766;37.570;2023-03-18T11:17:01;101607.28;;;5.88;18.08
37792;BME280;29527;55.766;37.570;2023-03-18T11:19:35;101605.47;;;5.89;17.92
37792;BME280;29527;55.766;37.570;2023-03-18T11:24:37;101598.75;;;6.07;17.35
37792;BME280;29527;55.766;37.570;2023-03-18T11:29:49;101610.31;;;6.06;18.42
37792;BME280;29527;55.766;37.570;2023-03-18T11:32:26;101604.16;;;6.04;18.69
37792;BME280;29527;55.766;37.570;2023-03-18T11:35:03;101596.53;;;5.92;18.58
37792;BME280;29527;55.766;37.570;2023-03-18T11:37:35;101595.00;;;5.84;18.21
37792;BME280;29527;55.766;37.570;2023-03-18T11:42:42;101579.78;;;5.89;18.83
37792;BME280;29527;55.766;37.570;2023-03-18T11:45:25;101589.16;;;6.01;19.13
37792;BME280;29527;55.766;37.570;2023-03-18T11:47:52;101588.88;;;5.82;19.71
37792;BME280;29527;55.766;37.570;2023-03-18T11:50:24;101568.81;;;5.99;18.46
37792;BME280;29527;55.766;37.570;2023-03-18T11:55:51;101575.72;;;5.78;19.55
37792;BME280;29527;55.766;37.570;2023-03-18T12:01:27;101586.69;;;5.67;19.69
37792;BME280;29527;55.766;37.570;2023-03-18T12:09:49;101582.50;;;5.59;19.38
37792;BME280;29527;55.766;37.570;2023-03-18T12:29:50;101560.75;;;5.75;19.33
37792;BME280;29527;55.766;37.570;2023-03-18T12:32:34;101571.63;;;5.67;19.89
37792;BME280;29527;55.766;37.570;2023-03-18T12:40:40;101552.63;;;5.51;19.62
37792;BME280;29527;55.766;37.570;2023-03-18T12:45:59;101544.78;;;5.75;19.50
37792;BME280;29527;55.766;37.570;2023-03-18T12:48:37;101501.69;;;5.38;20.14
37792;BME280;29527;55.766;37.570;2023-03-18T12:51:14;101546.88;;;5.65;20.08
37792;BME280;29527;55.766;37.570;2023-03-18T12:53:49;101525.59;;;5.67;19.88
37792;BME280;29527;55.766;37.570;2023-03-18T12:56:22;101535.19;;;5.71;20.63
37792;BME280;29527;55.766;37.570;2023-03-18T12:58:54;101524.63;;;5.69;19.00
37792;BME280;29527;55.766;37.570;2023-03-18T13:01:30;101532.94;;;5.58;19.61
37792;BME280;29527;55.766;37.570;2023-03-18T13:04:19;101521.50;;;5.56;19.67
37792;BME280;29527;55.766;37.570;2023-03-18T13:15:22;101519.56;;;5.62;19.78
37792;BME280;29527;55.766;37.570;2023-03-18T13:17:56;101486.19;;;5.24;20.28
37792;BME280;29527;55.766;37.570;2023-03-18T13:20:28;101486.19;;;5.24;20.63
37792;BME280;29527;55.766;37.570;2023-03-18T13:31:49;101509.63;;;5.40;20.79
37792;BME280;29527;55.766;37.570;2023-03-18T13:42:34;101472.19;;;5.19;20.46
37792;BME280;29527;55.766;37.570;2023-03-18T13:47:33;101498.38;;;5.31;20.95
37792;BME280;29527;55.766;37.570;2023-03-18T13:50:26;101501.66;;;5.40;21.18
37792;BME280;29527;55.766;37.570;2023-03-18T13:52:57;101448.44;;;5.14;21.68
37792;BME280;29527;55.766;37.570;2023-03-18T13:55:40;101487.19;;;5.49;21.49
37792;BME280;29527;55.766;37.570;2023-03-18T13:58:19;101485.84;;;5.35;20.71
37792;BME280;29527;55.766;37.570;2023-03-18T14:09:31;101475.88;;;5.15;21.95
37792;BME280;29527;55.766;37.570;2023-03-18T14:12:20;101467.91;;;5.15;21.49
37792;BME280;29527;55.766;37.570;2023-03-18T14:17:44;101470.13;;;5.29;21.43
37792;BME280;29527;55.766;37.570;2023-03-18T14:22:52;101451.81;;;4.91;21.45
37792;BME280;29527;55.766;37.570;2023-03-18T14:25:35;101456.84;;;5.00;21.29
37792;BME280;29527;55.766;37.570;2023-03-18T14:31:11;101461.53;;;4.92;21.16
37792;BME280;29527;55.766;37.570;2023-03-18T14:33:57;101461.75;;;4.84;21.81
37792;BME280;29527;55.766;37.570;2023-03-18T14:41:55;101449.19;;;4.61;22.13
37792;BME280;29527;55.766;37.570;2023-03-18T14:44:45;101457.88;;;4.66;22.11
37792;BME280;29527;55.766;37.570;2023-03-18T14:47:22;101449.63;;;4.76;22.26
37792;BME280;29527;55.766;37.570;2023-03-18T14:49:55;101456.53;;;4.81;22.14
37792;BME280;29527;55.766;37.570;2023-03-18T14:52:36;101456.41;;;5.14;22.00
37792;BME280;29527;55.766;37.570;2023-03-18T14:55:06;101451.06;;;5.43;21.43
37792;BME280;29527;55.766;37.570;2023-03-18T14:57:33;101451.78;;;5.48;21.42
37792;BME280;29527;55.766;37.570;2023-03-18T14:59:59;101445.66;;;5.46;20.35
37792;BME280;29527;55.766;37.570;2023-03-18T15:02:32;101448.56;;;5.38;20.22